ADDS METAR Data INFO
IDs: Format: Raw Decoded Include TAF

Data at: 2205 UTC 24 Feb 2018

KTVL 242153Z AUTO 18020G26KT 10SM BKN039 OVC050 M03/M09 A3011 RMK AO2 PK WND 18026/2153 SLP250 T10281089
KTVL 242053Z AUTO 19016G20KT 10SM FEW048 OVC060 M02/M09 A3011 RMK AO2 SLP249 T10171089 58012
KTVL 241953Z AUTO 17017G26KT 10SM FEW039 SCT046 OVC075 M02/M09 A3014 RMK AO2 PK WND 17027/1939 SLP257 T10221094
KTVL 241853Z AUTO 18018G26KT 10SM FEW047 SCT085 M03/M11 A3017 RMK AO2 PK WND 16030/1820 SLP260 T10281106
KTVL 241753Z AUTO 18015KT 10SM FEW120 M03/M12 A3016 RMK AO2 SLP257 I6000 T10331117 11022 21167 58002
KTVL 241653Z AUTO 20014G22KT 10SM CLR M02/M10 A3017 RMK AO2 SLP263 T10221100
KTVL 241553Z AUTO 21013G21KT 10SM CLR M02/M09 A3017 RMK AO2 SLP255 T10221094
KTVL 241453Z AUTO 00000KT 10SM CLR M10/M13 A3017 RMK AO2 SLP274 I1000 I3000 T11001128 58012
KTVL 241353Z AUTO 19005KT 10SM SCT120 M15/M17 A3018 RMK AO2 SLP291 T11501172
KTVL 241253Z AUTO 18004KT 10SM CLR M16/M18 A3020 RMK AO2 SLP291 T11561178
KTVL 241153Z AUTO 18006KT 10SM CLR M17/M19 A3021 RMK AO2 SLP290 70001 I6000 T11671194 11128 21183 58007
KTVL 241053Z AUTO 19004KT 10SM CLR M17/M19 A3023 RMK AO2 SLP300 T11721194
KTVL 240953Z AUTO 18004KT 10SM CLR M17/M18 A3023 RMK AO2 SLP301 I1000 T11671183
KTVL 240853Z AUTO 00000KT 10SM CLR M17/M19 A3023 RMK AO2 SLP302 I1000 I3000 T11671194 58005
KTVL 240753Z AUTO 19004KT 10SM CLR M16/M18 A3025 RMK AO2 SLP306 T11611183 410331167
KTVL 240653Z AUTO 21005KT 10SM CLR M13/M16 A3025 RMK AO2 SLP303 T11331161
KTVL 240553Z AUTO 21004KT 10SM CLR M13/M16 A3025 RMK AO2 SLP304 I1000 I6000 T11281156 11033 21133 53008
KTVL 240453Z AUTO 18004KT 10SM CLR M13/M15 A3023 RMK AO2 SLP302 T11331150
KTVL 240353Z AUTO 00000KT 10SM CLR M12/M14 A3022 RMK AO2 SLP306 I1000 T11171144
KTVL 240253Z AUTO 00000KT 10SM CLR M11/M13 A3022 RMK AO2 SLP301 T11061128 53016
KTVL 240153Z AUTO 00000KT 10SM CLR M09/M12 A3020 RMK AO2 SLP289 T10891122
KTVL 240053Z AUTO 00000KT 10SM CLR M06/M12 A3018 RMK AO2 SLP271 T10611117
KTVL 232353Z AUTO 04004KT 10SM CLR M04/M14 A3016 RMK AO2 SLP255 T10391144 11033 21078 53008
KTVL 232253Z AUTO 02005KT 10SM CLR M04/M14 A3015 RMK AO2 SLP251 T10391144
KTVL 232153Z AUTO 02009KT 10SM CLR M04/M16 A3015 RMK AO2 SLP249 T10441156
KTVL 232053Z AUTO 02006KT 10SM CLR M05/M16 A3014 RMK AO2 SLP249 T10501161 51008
KTVL 231953Z AUTO 04005KT 10SM BKN040 BKN048 M05/M16 A3013 RMK AO2 SLP241 T10501156
KTVL 231853Z AUTO VRB04KT 10SM BKN040 M07/M14 A3013 RMK AO2 SLP242 T10671144
KTVL 231753Z AUTO VRB06G15KT 10SM CLR M08/M14 A3011 RMK AO2 SLP239 60001 T10781144 11078 21133 51012
KTVL 231712Z AUTO 11007KT 070V130 10SM SCT027 M09/M14 A3010 RMK AO2 T10891144
KTVL 231653Z AUTO 12006G14KT 10SM BKN027 M08/M14 A3009 RMK AO2 SNE1557 SLP233 P0000 T10831144
KTVL 231651Z AUTO 12011KT 080V140 10SM BKN027 M08/M14 A3009 RMK AO2 SNE1557 P0000
KTVL 231612Z AUTO VRB03KT 10SM FEW026 BKN048 M11/M14 A3007 RMK AO2 SNE1557 P0000 T11111139
KTVL 231553Z AUTO 21003KT 7SM -SN OVC020 M12/M14 A3006 RMK AO2 SLP238 P0000 T11221144
KTVL 231543Z AUTO 00000KT 3SM -SN BR OVC016 M12/M14 A3006 RMK AO2 P0000 T11171139
KTVL 231522Z AUTO VRB03KT 1 3/4SM -SN SCT018 BKN024 OVC039 M12/M14 A3005 RMK AO2 P0000 T11171144
KTVL 231507Z AUTO 19003KT 3SM -SN BR BKN026 OVC035 M12/M14 A3004 RMK AO2 P0000 T11171139
KTVL 231453Z AUTO 17005KT 5SM -SN OVC026 M12/M15 A3003 RMK AO2 SNB34 SLP223 P0001 60001 T11221150 53012
KTVL 231430Z AUTO 20003KT 10SM SCT025 BKN029 OVC038 M12/M14 A3002 RMK AO2 T11221144
KTVL 231353Z AUTO 21003KT 10SM SCT029 BKN035 OVC041 M12/M15 A3000 RMK AO2 SLP213 T11221150
KTVL 231253Z AUTO 17005KT 10SM OVC032 M12/M14 A3000 RMK AO2 SLP210 T11221144
KTVL 231153Z AUTO VRB03KT 10SM OVC034 M11/M14 A2999 RMK AO2 SLP205 60002 70026 T11111139 11078 21111 53008
KTVL 231053Z AUTO 00000KT 10SM OVC030 M11/M13 A2997 RMK AO2 SLP195 T11061128
KTVL 231043Z AUTO 19004KT 10SM OVC032 M11/M13 A2997 RMK AO2 T11061128